Knoke, Iowa
Current Conditions -  °F | °C
As of 6:15 AM on Saturday 25 Oct 2014 (Local Time) from KFOD Reporting Station
Clear Clear  
Wind Chill: 52°   Ceiling: Unl
Heat Index: 52°   Visibility: 10mi
Dew Point: 39°   Wind: 5mph
Humidity: 62%   Direction: 350°N
Pressure: 30.05"   Gusts: NA
Location:  42.5199°N, 94.6301°W
Report Text: KFOD 251115Z AUTO 35004KT 10SM CLR 11/04 A3005 RMK AO1
Loading
Personal Weather Stations






























Interactive Weather Map
Tropical Storm Tracking
New forecast layout! Learn more

10-Day Weather Forecast

Advertisements
Track Severe Weather on mobile